Sunol, California
Current Conditions -  °F | °C
As of 12:53 AM on Friday 24 Oct 2014 (Local Time) from KLVK Reporting Station
Clear Clear  
Wind Chill: 59°   Ceiling: Unl
Heat Index: 59°   Visibility: 10mi
Dew Point: 52°   Wind: 7mph
Humidity: 78%   Direction: 90°E
Pressure: 29.99"   Gusts: NA
Location:  37.6°N, 121.9°W
Report Text: KLVK 240753Z AUTO 09006KT 10SM CLR 15/11 A2999 RMK AO2 SLP154 T01500111 402500128
Loading
Personal Weather Stations






























Interactive Weather Map
Tropical Storm Tracking
New forecast layout! Learn more

10-Day Weather Forecast

Advertisements
Track Severe Weather on mobile